createdAt,value
2018-10-06T00:01:42.543Z,9.40
2018-10-06T00:04:12.986Z,9.42
2018-10-06T00:06:43.418Z,9.32
2018-10-06T00:09:13.860Z,9.35
2018-10-06T00:11:44.309Z,9.30
2018-10-06T00:14:14.739Z,9.33
2018-10-06T00:16:45.416Z,9.36
2018-10-06T00:19:15.805Z,9.39
2018-10-06T00:21:46.186Z,9.37
2018-10-06T00:24:16.531Z,9.44
2018-10-06T00:26:47.140Z,9.70
2018-10-06T00:29:21.097Z,9.68
2018-10-06T00:31:51.544Z,9.65
2018-10-06T00:34:21.964Z,9.76
2018-10-06T00:36:52.381Z,9.77
2018-10-06T00:39:22.790Z,9.79
2018-10-06T00:41:53.296Z,9.84
2018-10-06T00:44:23.781Z,9.78
2018-10-06T00:46:54.353Z,9.78
2018-10-06T00:49:24.868Z,9.73
2018-10-06T00:51:55.452Z,9.70
2018-10-06T00:54:34.264Z,9.70
2018-10-06T00:57:04.813Z,9.67
2018-10-06T00:59:35.160Z,9.62
2018-10-06T01:02:05.624Z,9.57
2018-10-06T01:04:35.820Z,9.58
2018-10-06T01:07:06.294Z,9.59
2018-10-06T01:09:36.755Z,9.57
2018-10-06T01:12:07.178Z,9.55
2018-10-06T01:14:37.684Z,9.53
2018-10-06T01:17:08.341Z,9.48
2018-10-06T01:19:38.727Z,9.45
2018-10-06T01:22:09.070Z,9.39
2018-10-06T01:24:39.344Z,9.36
2018-10-06T01:27:09.869Z,9.33
2018-10-06T01:29:40.332Z,9.28
2018-10-06T01:32:10.728Z,9.24
2018-10-06T01:34:40.809Z,9.23
2018-10-06T01:37:11.225Z,9.20
2018-10-06T01:39:41.723Z,9.25
2018-10-06T01:42:12.349Z,9.28
2018-10-06T01:44:42.942Z,9.25
2018-10-06T01:47:13.479Z,9.34
2018-10-06T01:49:43.671Z,9.37
2018-10-06T01:52:14.132Z,9.41
2018-10-06T01:54:44.512Z,9.43
2018-10-06T01:57:15.107Z,9.40
2018-10-06T01:59:45.799Z,9.38
2018-10-06T02:02:16.132Z,9.38
2018-10-06T02:04:46.529Z,9.39
2018-10-06T02:07:16.995Z,9.42
2018-10-06T02:09:47.408Z,9.43
2018-10-06T02:12:17.917Z,9.45
2018-10-06T02:14:48.495Z,9.50
2018-10-06T02:17:18.700Z,9.42
2018-10-06T02:19:49.125Z,9.37
2018-10-06T02:22:19.515Z,9.43
2018-10-06T02:24:50.211Z,9.42
2018-10-06T02:27:20.681Z,9.33
2018-10-06T02:29:50.980Z,9.30
2018-10-06T02:32:21.424Z,9.34
2018-10-06T02:34:51.923Z,9.40
2018-10-06T02:37:22.332Z,9.38
2018-10-06T02:39:52.761Z,9.37
2018-10-06T02:42:23.177Z,9.35
2018-10-06T02:44:53.596Z,9.33
2018-10-06T02:47:24.223Z,9.35
2018-10-06T02:49:54.512Z,9.31
2018-10-06T02:52:24.905Z,9.24
2018-10-06T02:54:55.274Z,9.15
2018-10-06T02:57:25.685Z,9.08
2018-10-06T02:59:56.032Z,9.11
2018-10-06T03:02:26.411Z,9.16
2018-10-06T03:04:56.804Z,9.23
2018-10-06T03:07:27.181Z,9.32
2018-10-06T03:09:57.440Z,9.35
2018-10-06T03:12:27.910Z,9.39
2018-10-06T03:14:58.208Z,9.45
2018-10-06T03:17:28.572Z,9.50
2018-10-06T03:19:58.959Z,9.58
2018-10-06T03:22:29.396Z,9.60
2018-10-06T03:24:59.848Z,9.77
2018-10-06T03:27:30.399Z,9.75
2018-10-06T03:30:00.799Z,9.86
2018-10-06T03:32:31.092Z,10.04
2018-10-06T03:35:01.530Z,9.95
2018-10-06T03:37:31.910Z,9.91
2018-10-06T03:40:02.328Z,9.93
2018-10-06T03:42:32.780Z,9.95
2018-10-06T03:45:03.072Z,9.84
2018-10-06T03:47:33.616Z,9.74
2018-10-06T03:50:03.819Z,9.71
2018-10-06T03:52:34.063Z,9.65
2018-10-06T03:55:04.495Z,9.61
2018-10-06T03:57:34.952Z,9.55
2018-10-06T04:00:05.661Z,9.45
2018-10-06T04:02:36.161Z,9.36
2018-10-06T04:05:06.749Z,9.27
2018-10-06T04:07:37.295Z,9.21
2018-10-06T04:10:07.689Z,9.24
2018-10-06T04:12:38.128Z,9.26
2018-10-06T04:15:08.861Z,9.27
2018-10-06T04:17:39.308Z,9.26
2018-10-06T04:20:10.202Z,9.21
2018-10-06T04:22:40.692Z,9.15
2018-10-06T04:25:11.297Z,9.14
2018-10-06T04:27:41.764Z,9.11
2018-10-06T04:30:12.365Z,9.07
2018-10-06T04:32:43.336Z,9.02
2018-10-06T04:35:13.948Z,8.99
2018-10-06T04:37:44.278Z,8.94
2018-10-06T04:40:14.691Z,8.95
2018-10-06T04:42:45.046Z,8.92
2018-10-06T04:45:15.373Z,8.90
2018-10-06T04:47:45.602Z,8.89
2018-10-06T04:50:16.115Z,8.82
2018-10-06T04:52:46.566Z,8.84
2018-10-06T04:55:16.967Z,8.80
2018-10-06T04:57:47.448Z,8.83
2018-10-06T05:00:17.899Z,8.84
2018-10-06T05:02:48.372Z,8.84
2018-10-06T05:05:18.895Z,8.83
2018-10-06T05:07:49.272Z,8.89
2018-10-06T05:10:19.971Z,8.98
2018-10-06T05:12:50.551Z,8.97
2018-10-06T05:15:21.024Z,9.03
2018-10-06T05:17:51.486Z,9.03
2018-10-06T05:20:21.995Z,9.04
2018-10-06T05:22:52.655Z,9.06
2018-10-06T05:25:23.164Z,9.07
2018-10-06T05:27:53.659Z,9.09
2018-10-06T05:30:23.935Z,9.12
2018-10-06T05:32:54.263Z,9.18
2018-10-06T05:35:24.982Z,9.26
2018-10-06T05:37:55.456Z,9.30
2018-10-06T05:40:25.893Z,9.33
2018-10-06T05:42:56.432Z,9.39
2018-10-06T05:45:26.820Z,9.39
2018-10-06T05:47:57.181Z,9.62
2018-10-06T05:50:27.668Z,10.14
2018-10-06T05:52:58.152Z,10.51
2018-10-06T05:55:28.520Z,10.96
2018-10-06T05:57:59.799Z,11.30
2018-10-06T06:00:30.663Z,11.71
2018-10-06T06:03:00.997Z,12.08
2018-10-06T06:05:31.272Z,12.45
2018-10-06T06:08:01.644Z,13.10
2018-10-06T06:10:32.144Z,13.27
2018-10-06T06:13:02.519Z,13.34
2018-10-06T06:15:32.827Z,13.77
2018-10-06T06:18:03.144Z,14.24
2018-10-06T06:20:33.575Z,14.50
2018-10-06T06:23:04.454Z,14.51
2018-10-06T06:25:34.832Z,15.01
2018-10-06T06:28:05.183Z,15.28
2018-10-06T06:30:35.467Z,15.77
2018-10-06T06:33:06.570Z,16.08
2018-10-06T06:35:36.934Z,16.33
2018-10-06T06:38:07.505Z,16.81
2018-10-06T06:40:38.032Z,17.09
2018-10-06T06:43:08.664Z,17.36
2018-10-06T06:45:38.871Z,17.75
2018-10-06T06:48:09.257Z,18.13
2018-10-06T06:50:39.672Z,18.43
2018-10-06T06:53:10.028Z,18.81
2018-10-06T06:55:40.504Z,19.30
2018-10-06T06:58:11.454Z,19.33
2018-10-06T07:00:41.787Z,19.10
2018-10-06T07:03:12.249Z,19.43
2018-10-06T07:05:42.686Z,19.63
2018-10-06T07:08:13.013Z,19.92
2018-10-06T07:10:43.271Z,20.47
2018-10-06T07:13:13.711Z,20.69
2018-10-06T07:15:44.434Z,21.05
2018-10-06T07:18:14.836Z,20.93
2018-10-06T07:20:45.343Z,21.37
2018-10-06T07:23:15.674Z,21.23
2018-10-06T07:25:45.968Z,21.60
2018-10-06T07:28:16.361Z,21.86
2018-10-06T07:30:46.848Z,22.20
2018-10-06T07:33:17.635Z,22.25
2018-10-06T07:35:48.131Z,22.20
2018-10-06T07:38:18.385Z,22.71
2018-10-06T07:40:48.774Z,22.88
2018-10-06T07:43:19.282Z,23.04
2018-10-06T07:45:49.860Z,22.78
2018-10-06T07:48:20.314Z,23.24
2018-10-06T07:50:52.016Z,23.38
2018-10-06T07:53:22.283Z,23.30
2018-10-06T07:55:52.643Z,23.86
2018-10-06T07:58:23.275Z,23.38
2018-10-06T08:00:53.757Z,23.33
2018-10-06T08:03:24.114Z,23.48
2018-10-06T08:05:54.379Z,23.72
2018-10-06T08:08:24.784Z,23.61
2018-10-06T08:10:55.193Z,24.01
2018-10-06T08:13:25.510Z,23.98
2018-10-06T08:15:55.908Z,23.71
2018-10-06T08:18:26.328Z,23.64
2018-10-06T08:20:56.800Z,24.03
2018-10-06T08:23:27.284Z,23.67
2018-10-06T08:25:57.572Z,23.76
2018-10-06T08:28:28.027Z,23.68
2018-10-06T08:30:59.133Z,23.87
2018-10-06T08:33:29.595Z,23.50
2018-10-06T08:35:59.995Z,23.47
2018-10-06T08:38:30.256Z,23.79
2018-10-06T08:41:00.625Z,23.68
2018-10-06T08:43:31.119Z,23.56
2018-10-06T08:46:02.096Z,23.67
2018-10-06T08:48:32.655Z,23.60
2018-10-06T08:51:03.097Z,23.79
2018-10-06T08:53:33.576Z,23.50
2018-10-06T08:56:03.873Z,23.23
2018-10-06T08:58:34.302Z,23.06
2018-10-06T09:01:04.806Z,22.43
2018-10-06T09:03:35.310Z,22.54
2018-10-06T09:06:05.907Z,22.33
2018-10-06T09:08:36.554Z,22.48
2018-10-06T09:11:06.994Z,22.41
2018-10-06T09:13:37.410Z,22.40
2018-10-06T09:16:08.000Z,22.49
2018-10-06T09:18:38.973Z,22.12
2018-10-06T09:21:09.308Z,22.08
2018-10-06T09:24:01.914Z,22.03
2018-10-06T09:26:32.344Z,21.60
2018-10-06T09:29:02.791Z,21.56
2018-10-06T09:31:33.123Z,21.74
2018-10-06T09:34:03.700Z,21.92
2018-10-06T09:36:34.159Z,21.58
2018-10-06T09:39:06.027Z,21.86
2018-10-06T09:41:36.396Z,21.49
2018-10-06T09:44:06.951Z,21.82
2018-10-06T09:46:37.446Z,21.24
2018-10-06T09:49:07.867Z,21.49
2018-10-06T09:51:38.317Z,21.54
2018-10-06T09:54:08.756Z,21.73
2018-10-06T09:56:39.171Z,21.44
2018-10-06T09:59:09.731Z,21.62
2018-10-06T10:01:45.080Z,21.75
2018-10-06T10:04:16.940Z,21.92
2018-10-06T10:06:47.776Z,21.87
2018-10-06T10:09:18.085Z,21.60
2018-10-06T10:11:48.416Z,21.39
2018-10-06T10:14:18.881Z,21.49
2018-10-06T10:16:49.275Z,21.24
2018-10-06T10:19:19.825Z,21.52
2018-10-06T10:21:50.232Z,21.58
2018-10-06T10:24:21.585Z,21.97
2018-10-06T10:26:52.095Z,21.99
2018-10-06T10:29:22.455Z,22.03
2018-10-06T10:31:53.059Z,21.85
2018-10-06T10:34:23.364Z,21.98
2018-10-06T10:36:53.696Z,22.01
2018-10-06T10:39:24.211Z,22.12
2018-10-06T10:41:54.579Z,22.20
2018-10-06T10:44:25.133Z,22.33
2018-10-06T10:46:55.324Z,22.19
2018-10-06T10:49:25.971Z,22.33
2018-10-06T10:51:56.374Z,22.05
2018-10-06T10:54:26.884Z,22.17
2018-10-06T10:56:57.488Z,22.38
2018-10-06T10:59:27.904Z,22.52
2018-10-06T11:01:58.340Z,22.51
2018-10-06T11:04:28.912Z,22.62
2018-10-06T11:06:59.406Z,22.64
2018-10-06T11:09:29.775Z,22.73
2018-10-06T11:12:00.224Z,22.78
2018-10-06T11:14:30.827Z,22.76
2018-10-06T11:17:01.256Z,22.82
2018-10-06T11:19:31.919Z,22.79
2018-10-06T11:22:02.609Z,22.92
2018-10-06T11:24:33.166Z,23.07
2018-10-06T11:27:03.481Z,23.13
2018-10-06T11:29:33.816Z,23.13
2018-10-06T11:32:04.225Z,23.04
2018-10-06T11:34:34.712Z,23.04
2018-10-06T11:37:05.080Z,23.09
2018-10-06T11:39:35.540Z,23.07
2018-10-06T11:42:05.998Z,22.98
2018-10-06T11:44:41.754Z,22.79
2018-10-06T11:47:12.478Z,23.09
2018-10-06T11:49:43.625Z,23.11
2018-10-06T11:52:14.011Z,23.07
2018-10-06T11:54:44.619Z,23.14
2018-10-06T11:57:15.203Z,23.25
2018-10-06T11:59:45.517Z,23.45
2018-10-06T12:02:24.357Z,23.49
2018-10-06T12:05:01.735Z,23.47
2018-10-06T12:07:32.493Z,23.43
2018-10-06T12:10:02.917Z,23.54
2018-10-06T12:12:33.430Z,23.38
2018-10-06T12:15:03.954Z,23.49
2018-10-06T12:17:34.290Z,23.28
2018-10-06T12:20:04.839Z,23.19
2018-10-06T12:22:35.133Z,23.24
2018-10-06T12:25:05.715Z,23.21
2018-10-06T12:27:35.875Z,23.39
2018-10-06T12:30:06.382Z,23.09
2018-10-06T12:32:36.740Z,23.14
2018-10-06T12:35:07.531Z,23.05
2018-10-06T12:37:38.267Z,23.12
2018-10-06T12:40:08.727Z,23.05
2018-10-06T12:42:39.205Z,23.12
2018-10-06T12:45:09.692Z,23.16
2018-10-06T12:47:39.959Z,23.13
2018-10-06T12:50:14.755Z,23.34
2018-10-06T12:52:52.811Z,23.36
2018-10-06T12:55:29.368Z,23.37
2018-10-06T12:58:00.241Z,23.34
2018-10-06T13:00:33.296Z,23.35
2018-10-06T13:03:11.833Z,23.38
2018-10-06T13:05:42.276Z,23.40
2018-10-06T13:08:12.777Z,23.40
2018-10-06T13:10:43.664Z,23.46
2018-10-06T13:13:14.125Z,23.48
2018-10-06T13:15:52.449Z,23.35
2018-10-06T13:18:28.733Z,23.17
2018-10-06T13:21:02.292Z,23.18
2018-10-06T13:23:32.740Z,23.13
2018-10-06T13:26:14.649Z,23.23
2018-10-06T13:29:11.710Z,23.27
2018-10-06T13:31:42.147Z,23.41
2018-10-06T13:34:12.342Z,23.50
2018-10-06T13:36:42.807Z,23.33
2018-10-06T13:39:13.194Z,23.40
2018-10-06T13:41:43.684Z,23.50
2018-10-06T13:44:14.291Z,23.37
2018-10-06T13:46:44.845Z,23.34
2018-10-06T13:49:15.140Z,23.30
2018-10-06T13:51:45.803Z,23.41
2018-10-06T13:54:16.323Z,23.46
2018-10-06T13:56:47.007Z,23.33
2018-10-06T13:59:17.589Z,23.41
2018-10-06T14:01:47.839Z,23.23
2018-10-06T14:04:18.345Z,23.39
2018-10-06T14:06:48.895Z,23.37
2018-10-06T14:09:19.301Z,23.40
2018-10-06T14:11:49.767Z,23.40
2018-10-06T14:14:20.263Z,23.34
2018-10-06T14:16:50.575Z,23.35
2018-10-06T14:19:20.915Z,23.41
2018-10-06T14:21:51.291Z,23.33
2018-10-06T14:24:21.684Z,23.22
2018-10-06T14:26:52.064Z,23.10
2018-10-06T14:29:22.517Z,23.01
2018-10-06T14:31:52.996Z,22.97
2018-10-06T14:34:23.509Z,23.04
2018-10-06T14:36:53.993Z,22.98
2018-10-06T14:39:24.584Z,23.06
2018-10-06T14:44:55.486Z,23.07
2018-10-06T14:47:26.117Z,23.04
2018-10-06T14:49:57.459Z,22.99
2018-10-06T14:52:27.769Z,23.03
2018-10-06T14:54:58.215Z,23.01
2018-10-06T14:57:29.497Z,22.93
2018-10-06T14:59:59.979Z,23.03
2018-10-06T15:02:30.443Z,23.02
2018-10-06T15:05:00.884Z,22.97
2018-10-06T15:07:31.535Z,22.98
2018-10-06T15:10:01.776Z,22.98
2018-10-06T15:12:32.213Z,22.93
2018-10-06T15:15:03.419Z,22.93
2018-10-06T15:17:33.788Z,22.92
2018-10-06T15:20:04.384Z,22.88
2018-10-06T15:22:34.724Z,22.77
2018-10-06T15:25:05.354Z,22.72
2018-10-06T15:27:35.850Z,22.67
2018-10-06T15:30:06.795Z,22.59
2018-10-06T15:32:37.645Z,22.46
2018-10-06T15:35:08.207Z,22.26
2018-10-06T15:37:38.775Z,22.14
2018-10-06T15:40:09.109Z,22.03
2018-10-06T15:42:39.506Z,21.85
2018-10-06T15:45:10.447Z,21.73
2018-10-06T15:47:40.763Z,21.66
2018-10-06T15:50:11.399Z,21.56
2018-10-06T15:52:41.851Z,21.52
2018-10-06T15:55:12.252Z,21.43
2018-10-06T15:57:42.716Z,21.39
2018-10-06T16:00:13.105Z,21.27
2018-10-06T16:02:43.554Z,21.16
2018-10-06T16:05:14.066Z,21.04
2018-10-06T16:07:44.419Z,20.90
2018-10-06T16:10:14.800Z,20.86
2018-10-06T16:12:45.106Z,20.83
2018-10-06T16:15:15.575Z,20.75
2018-10-06T16:17:46.047Z,20.70
2018-10-06T16:20:16.548Z,20.68
2018-10-06T16:22:46.929Z,20.62
2018-10-06T16:25:17.520Z,20.53
2018-10-06T16:27:47.987Z,20.53
2018-10-06T16:30:18.255Z,20.40
2018-10-06T16:32:48.742Z,20.38
2018-10-06T16:35:19.228Z,20.21
2018-10-06T16:37:49.633Z,20.29
2018-10-06T16:40:20.348Z,20.14
2018-10-06T16:42:50.543Z,19.95
2018-10-06T16:45:21.036Z,19.81
2018-10-06T16:47:51.416Z,19.66
2018-10-06T16:50:21.916Z,19.50
2018-10-06T16:52:52.418Z,19.36
2018-10-06T16:55:22.934Z,19.22
2018-10-06T16:57:53.460Z,19.10
2018-10-06T17:00:24.165Z,19.00
2018-10-06T17:02:54.669Z,18.92
2018-10-06T17:05:25.252Z,18.82
2018-10-06T17:07:56.189Z,18.72
2018-10-06T17:10:26.697Z,18.62
2018-10-06T17:12:57.262Z,18.56
2018-10-06T17:15:27.711Z,18.49
2018-10-06T17:17:58.013Z,18.36
2018-10-06T17:20:28.492Z,18.32
2018-10-06T17:22:58.987Z,18.19
2018-10-06T17:25:29.485Z,18.19
2018-10-06T17:27:59.987Z,18.19
2018-10-06T17:30:30.351Z,18.22
2018-10-06T17:33:00.727Z,18.23
2018-10-06T17:35:31.863Z,18.26
2018-10-06T17:38:02.199Z,18.23
2018-10-06T17:40:32.697Z,18.26
2018-10-06T17:43:03.336Z,18.20
2018-10-06T17:45:33.933Z,18.32
2018-10-06T17:48:04.517Z,18.39
2018-10-06T17:50:35.214Z,18.43
2018-10-06T17:53:05.700Z,18.42
2018-10-06T17:55:36.187Z,18.44
2018-10-06T17:58:06.724Z,18.36
2018-10-06T18:00:37.246Z,18.36
2018-10-06T18:03:07.698Z,18.26
2018-10-06T18:05:38.067Z,18.23
2018-10-06T18:08:08.595Z,18.16
2018-10-06T18:10:39.123Z,18.12
2018-10-06T18:13:09.333Z,18.10
2018-10-06T18:15:39.842Z,18.14
2018-10-06T18:18:10.327Z,18.18
2018-10-06T18:20:40.912Z,18.09
2018-10-06T18:23:11.390Z,18.13
2018-10-06T18:25:42.191Z,18.18
2018-10-06T18:28:12.651Z,18.14
2018-10-06T18:30:43.040Z,18.16
2018-10-06T18:33:13.823Z,18.17
2018-10-06T18:35:44.162Z,18.05
2018-10-06T18:38:14.580Z,18.06
2018-10-06T18:40:45.043Z,17.98
2018-10-06T18:43:15.589Z,17.87
2018-10-06T18:45:45.937Z,17.81
2018-10-06T18:48:16.316Z,17.86
2018-10-06T18:50:46.665Z,17.85
2018-10-06T18:53:17.045Z,17.82
2018-10-06T18:55:47.623Z,17.75
2018-10-06T18:58:18.039Z,17.67
2018-10-06T19:00:48.499Z,17.69
2018-10-06T19:03:19.036Z,17.64
2018-10-06T19:05:49.714Z,17.60
2018-10-06T19:08:20.677Z,17.54
2018-10-06T19:10:51.148Z,17.50
2018-10-06T19:13:21.641Z,17.40
2018-10-06T19:15:51.859Z,17.34
2018-10-06T19:18:22.083Z,17.37
2018-10-06T19:20:52.664Z,17.27
2018-10-06T19:23:23.060Z,17.31
2018-10-06T19:25:53.294Z,17.27
2018-10-06T19:28:23.695Z,17.25
2018-10-06T19:30:54.284Z,17.23
2018-10-06T19:33:25.050Z,17.22
2018-10-06T19:35:55.557Z,17.26
2018-10-06T19:38:25.975Z,17.14
2018-10-06T19:40:56.434Z,17.04
2018-10-06T19:43:26.717Z,17.04
2018-10-06T19:45:57.869Z,16.97
2018-10-06T19:48:28.247Z,16.79
2018-10-06T19:50:58.844Z,16.67
2018-10-06T19:53:29.253Z,16.57
2018-10-06T19:55:59.885Z,16.50
2018-10-06T19:58:30.371Z,16.42
2018-10-06T20:01:00.660Z,16.35
2018-10-06T20:03:31.023Z,16.34
2018-10-06T20:06:01.680Z,16.24
2018-10-06T20:08:34.078Z,16.15
2018-10-06T20:11:04.644Z,16.07
2018-10-06T20:13:35.062Z,15.98
2018-10-06T20:16:05.647Z,15.92
2018-10-06T20:18:36.137Z,15.83
2018-10-06T20:21:06.466Z,15.82
2018-10-06T20:23:37.372Z,15.74
2018-10-06T20:26:08.170Z,15.68
2018-10-06T20:28:38.552Z,15.65
2018-10-06T20:31:09.035Z,15.55
2018-10-06T20:33:39.414Z,15.51
2018-10-06T20:36:10.092Z,15.48
2018-10-06T20:38:40.577Z,15.42
2018-10-06T20:41:10.976Z,15.33
2018-10-06T20:43:41.315Z,15.26
2018-10-06T20:46:11.826Z,15.18
2018-10-06T20:48:42.112Z,15.10
2018-10-06T20:51:12.612Z,15.07
2018-10-06T20:53:42.951Z,15.04
2018-10-06T20:56:13.476Z,14.99
2018-10-06T20:58:43.800Z,14.96
2018-10-06T21:01:14.207Z,14.96
2018-10-06T21:03:44.763Z,14.91
2018-10-06T21:06:15.040Z,14.91
2018-10-06T21:08:45.404Z,14.88
2018-10-06T21:11:15.997Z,14.84
2018-10-06T21:13:46.476Z,14.80
2018-10-06T21:16:16.907Z,14.77
2018-10-06T21:18:47.243Z,14.76
2018-10-06T21:21:17.759Z,14.70
2018-10-06T21:23:48.211Z,14.69
2018-10-06T21:26:18.731Z,14.67
2018-10-06T21:28:49.714Z,14.65
2018-10-06T21:31:20.167Z,14.61
2018-10-06T21:33:50.675Z,14.60
2018-10-06T21:36:21.092Z,14.58
2018-10-06T21:38:52.365Z,14.54
2018-10-06T21:41:22.833Z,14.50
2018-10-06T21:43:53.220Z,14.50
2018-10-06T21:46:23.868Z,14.49
2018-10-06T21:48:54.034Z,14.44
2018-10-06T21:51:24.421Z,14.41
2018-10-06T21:53:54.835Z,14.42
2018-10-06T21:56:25.212Z,14.38
2018-10-06T21:58:55.543Z,14.36
2018-10-06T22:01:26.047Z,14.33
2018-10-06T22:03:57.048Z,14.29
2018-10-06T22:06:27.536Z,14.28
2018-10-06T22:08:58.004Z,14.24
2018-10-06T22:11:28.631Z,14.23
2018-10-06T22:13:59.110Z,14.16
2018-10-06T22:16:30.290Z,14.09
2018-10-06T22:19:00.774Z,13.98
2018-10-06T22:21:31.238Z,13.95
2018-10-06T22:24:01.509Z,13.81
2018-10-06T22:26:31.991Z,13.78
2018-10-06T22:29:02.472Z,13.78
2018-10-06T22:31:33.346Z,13.73
2018-10-06T22:34:03.773Z,13.73
2018-10-06T22:36:34.932Z,13.68
2018-10-06T22:39:06.416Z,13.65
2018-10-06T22:41:36.753Z,13.63
2018-10-06T22:44:07.181Z,13.62
2018-10-06T22:46:37.843Z,13.61
2018-10-06T22:49:08.396Z,13.60
2018-10-06T22:51:38.901Z,13.56
2018-10-06T22:54:09.472Z,13.52
2018-10-06T22:56:39.709Z,13.49
2018-10-06T22:59:10.125Z,13.46
2018-10-06T23:01:40.586Z,13.44
2018-10-06T23:04:11.183Z,13.41
2018-10-06T23:06:41.699Z,13.34
2018-10-06T23:09:12.846Z,13.34
2018-10-06T23:11:43.455Z,13.35
2018-10-06T23:14:13.845Z,13.30
2018-10-06T23:16:44.380Z,13.29
2018-10-06T23:19:14.777Z,13.24
2018-10-06T23:21:45.148Z,13.19
2018-10-06T23:24:15.474Z,13.15
2018-10-06T23:26:45.828Z,13.11
2018-10-06T23:29:16.090Z,13.06
2018-10-06T23:31:46.601Z,13.03
2018-10-06T23:34:17.102Z,13.00
2018-10-06T23:36:47.774Z,12.98
2018-10-06T23:39:18.348Z,12.92
2018-10-06T23:41:49.265Z,12.87
2018-10-06T23:44:19.722Z,12.85
2018-10-06T23:46:50.075Z,12.87
2018-10-06T23:49:20.464Z,12.84
2018-10-06T23:51:50.948Z,12.85
2018-10-06T23:54:21.357Z,12.87
2018-10-06T23:56:51.765Z,12.87
2018-10-06T23:59:22.146Z,12.95
